Time;durP1;ratioP1;P1;durP2;ratioP2;P2;SDS_P1;SDS_P2;PMS_P1;PMS_P2;Temp;Humidity;BMP_temperature;BMP_pressure;BME280_temperature;BME280_humidity;BME280_pressure;Samples;Min_cycle;Max_cycle;Signal;HPM_P1;HPM_P2
2023/03/01 00:01:06;;;;;;;18.77;9.45;;;;;;;-2.16;87.12;102750.97;4969485;28;20038;-79
2023/03/01 00:03:33;;;;;;;16.98;8.38;;;;;;;-2.17;87.69;102753.53;4956965;28;22366;-80
2023/03/01 00:05:59;;;;;;;15.23;8.43;;;;;;;-2.17;87.76;102756.06;4969783;28;20036;-81
2023/03/01 00:08:25;;;;;;;16.50;8.27;;;;;;;-2.19;87.68;102757.78;4984975;28;20416;-81
2023/03/01 00:11:07;;;;;;;19.63;8.43;;;;;;;-2.23;88.00;102757.00;4955623;28;20039;-81
2023/03/01 00:13:33;;;;;;;18.77;8.68;;;;;;;-2.25;88.07;102756.19;4986385;28;20038;-80
2023/03/01 00:15:58;;;;;;;20.08;9.13;;;;;;;-2.27;87.94;102754.56;4967230;28;20462;-81
2023/03/01 00:18:24;;;;;;;17.02;9.50;;;;;;;-2.27;87.99;102750.31;4958303;28;20034;-81
2023/03/01 00:20:54;;;;;;;20.67;9.07;;;;;;;-2.27;88.22;102750.31;4970115;28;20146;-80
2023/03/01 00:23:21;;;;;;;20.80;9.35;;;;;;;-2.28;88.19;102751.19;4983827;28;20032;-80
2023/03/01 00:25:46;;;;;;;23.02;9.27;;;;;;;-2.28;88.09;102748.63;4983455;28;20035;-81
2023/03/01 00:28:12;;;;;;;18.40;9.20;;;;;;;-2.31;88.05;102743.59;4958980;28;20045;-80
2023/03/01 00:30:37;;;;;;;21.25;11.25;;;;;;;-2.34;88.29;102743.63;4965181;28;20086;-81
2023/03/01 00:33:03;;;;;;;21.17;10.05;;;;;;;-2.36;88.44;102745.38;4984998;28;20030;-81
2023/03/01 00:35:28;;;;;;;25.42;9.73;;;;;;;-2.39;88.58;102737.81;4967492;28;20516;-81
2023/03/01 00:37:57;;;;;;;22.10;11.25;;;;;;;-2.38;88.69;102742.00;4971778;28;20039;-81
2023/03/01 00:40:29;;;;;;;27.48;11.15;;;;;;;-2.40;88.48;102734.41;4987175;28;20582;-83
2023/03/01 00:42:55;;;;;;;23.70;10.90;;;;;;;-2.43;88.85;102741.25;4975086;28;20431;-81
2023/03/01 00:45:21;;;;;;;25.92;10.68;;;;;;;-2.43;88.94;102739.56;4984565;28;20035;-79
2023/03/01 00:47:49;;;;;;;25.25;10.93;;;;;;;-2.47;89.04;102727.75;4968504;28;20472;-80
2023/03/01 00:50:15;;;;;;;20.58;9.30;;;;;;;-2.48;89.17;102732.88;4957370;28;20054;-80
2023/03/01 00:52:40;;;;;;;25.45;10.02;;;;;;;-2.47;89.14;102727.75;4976165;28;20066;-81
2023/03/01 00:55:06;;;;;;;22.05;9.93;;;;;;;-2.49;89.50;102734.56;4959880;28;20051;-81
2023/03/01 00:57:33;;;;;;;24.15;10.45;;;;;;;-2.50;89.29;102726.97;4971137;28;20421;-81
2023/03/01 00:59:58;;;;;;;26.50;11.35;;;;;;;-2.54;89.22;102718.56;4973356;28;20026;-81
2023/03/01 01:02:28;;;;;;;22.58;11.35;;;;;;;-2.56;89.54;102715.22;4957137;28;20089;-81
2023/03/01 01:04:53;;;;;;;19.70;9.88;;;;;;;-2.59;89.62;102708.47;4975657;28;20034;-81
2023/03/01 01:07:19;;;;;;;18.38;9.88;;;;;;;-2.61;90.06;102712.72;4952734;28;20678;-81
2023/03/01 01:09:46;;;;;;;22.05;10.00;;;;;;;-2.64;89.85;102710.22;4972046;28;20061;-80
2023/03/01 01:12:11;;;;;;;21.70;11.57;;;;;;;-2.65;90.11;102716.19;4987638;28;20066;-81
2023/03/01 01:14:37;;;;;;;24.50;11.13;;;;;;;-2.66;90.17;102709.41;4971503;28;20031;-81
2023/03/01 01:17:03;;;;;;;22.20;10.10;;;;;;;-2.69;90.28;102699.31;4974266;28;20409;-81
2023/03/01 01:19:28;;;;;;;25.33;10.55;;;;;;;-2.71;90.46;102701.06;4975332;28;20493;-80
2023/03/01 01:21:54;;;;;;;22.30;10.38;;;;;;;-2.72;90.70;102696.00;4955900;28;20035;-79
2023/03/01 01:24:19;;;;;;;22.27;10.55;;;;;;;-2.72;90.95;102696.81;4970388;28;20054;-81
2023/03/01 01:26:45;;;;;;;19.77;9.57;;;;;;;-2.76;90.86;102696.03;4975402;28;20377;-79
2023/03/01 01:29:12;;;;;;;24.85;10.45;;;;;;;-2.76;91.02;102696.03;4974443;28;20041;-81
2023/03/01 01:31:40;;;;;;;21.92;9.80;;;;;;;-2.80;90.93;102684.25;4973345;28;20556;-80
2023/03/01 01:34:07;;;;;;;22.88;10.85;;;;;;;-2.82;91.00;102680.06;4974270;28;20030;-80
2023/03/01 01:36:34;;;;;;;22.13;10.45;;;;;;;-2.84;91.22;102676.72;4984146;28;20065;-80
2023/03/01 01:38:59;;;;;;;23.35;10.80;;;;;;;-2.87;91.40;102677.56;4955829;28;20039;-81
2023/03/01 01:41:28;;;;;;;21.75;10.40;;;;;;;-2.90;91.25;102670.03;4966799;28;20046;-81
2023/03/01 01:44:14;;;;;;;23.05;10.68;;;;;;;-2.90;91.34;102674.25;4972176;28;20034;-80
2023/03/01 01:46:48;;;;;;;23.75;10.90;;;;;;;-2.89;91.46;102674.22;4986067;28;20039;-80
2023/03/01 01:49:23;;;;;;;22.08;10.93;;;;;;;-2.93;91.53;102670.06;4992324;28;20062;-80
2023/03/01 01:51:55;;;;;;;23.48;10.45;;;;;;;-2.95;91.55;102667.53;4965690;28;20039;-80
2023/03/01 01:54:31;;;;;;;23.95;11.75;;;;;;;-2.96;91.71;102663.34;4988192;28;20094;-80
2023/03/01 01:57:03;;;;;;;25.80;12.15;;;;;;;-2.98;91.63;102656.59;4983155;28;20417;-80
2023/03/01 01:59:31;;;;;;;22.90;11.60;;;;;;;-3.00;91.76;102648.16;4952818;28;20341;-79
2023/03/01 02:02:00;;;;;;;22.35;10.35;;;;;;;-3.04;91.72;102647.38;4968583;28;20085;-79
2023/03/01 02:04:28;;;;;;;25.15;11.13;;;;;;;-3.05;91.82;102645.69;4979909;28;20023;-79
2023/03/01 02:07:02;;;;;;;21.95;10.48;;;;;;;-3.06;91.95;102651.63;4984751;28;20664;-80
2023/03/01 02:09:32;;;;;;;21.40;11.00;;;;;;;-3.08;92.21;102643.19;4972131;28;20030;-80
2023/03/01 02:11:58;;;;;;;23.10;10.85;;;;;;;-3.11;92.22;102642.41;4990959;28;20085;-79
2023/03/01 02:14:24;;;;;;;26.23;11.57;;;;;;;-3.13;92.06;102647.50;4986947;28;20035;-81
2023/03/01 02:16:50;;;;;;;22.10;10.60;;;;;;;-3.15;92.23;102644.13;4979201;28;20038;-80
2023/03/01 02:19:42;;;;;;;23.10;11.43;;;;;;;-3.16;92.61;102650.09;4958955;28;20035;-81
2023/03/01 02:22:20;;;;;;;19.95;10.98;;;;;;;-3.19;92.67;102650.13;4975459;28;20050;-81
2023/03/01 02:25:04;;;;;;;25.58;11.60;;;;;;;-3.20;92.78;102644.22;4992271;28;20043;-80
2023/03/01 02:27:40;;;;;;;22.60;11.27;;;;;;;-3.21;92.77;102644.25;4975963;28;20452;-80
2023/03/01 02:30:07;;;;;;;20.88;11.00;;;;;;;-3.23;93.22;102645.97;4975586;28;20110;-80
2023/03/01 02:32:34;;;;;;;20.48;10.93;;;;;;;-3.25;93.03;102645.16;4979636;28;20049;-80
2023/03/01 02:34:59;;;;;;;21.60;10.75;;;;;;;-3.28;92.95;102652.78;4986748;28;20170;-79
2023/03/01 02:37:26;;;;;;;24.88;10.73;;;;;;;-3.30;93.28;102649.44;4974522;28;20090;-80
2023/03/01 02:40:03;;;;;;;24.33;10.95;;;;;;;-3.33;93.10;102643.56;4974657;28;20034;-80
2023/03/01 02:42:39;;;;;;;19.17;10.23;;;;;;;-3.37;93.42;102659.69;4989138;28;20070;-80
2023/03/01 02:45:05;;;;;;;22.10;11.25;;;;;;;-3.40;93.41;102654.63;4975627;28;20039;-80
2023/03/01 02:47:30;;;;;;;23.20;11.35;;;;;;;-3.44;93.61;102644.56;4960067;28;20073;-79
2023/03/01 02:49:56;;;;;;;29.20;12.23;;;;;;;-3.46;93.70;102648.81;4975479;28;20043;-80
2023/03/01 02:52:38;;;;;;;26.45;12.80;;;;;;;-3.38;94.05;102647.00;4972789;28;20037;-80
2023/03/01 02:55:10;;;;;;;28.30;11.75;;;;;;;-3.39;94.16;102638.56;4975453;28;20038;-80
2023/03/01 02:57:40;;;;;;;29.08;10.82;;;;;;;-3.41;94.07;102639.44;4971804;28;20066;-79
2023/03/01 03:00:20;;;;;;;26.35;11.55;;;;;;;-3.44;94.33;102649.63;4990809;28;20023;-80
2023/03/01 03:02:49;;;;;;;23.17;11.80;;;;;;;-3.46;94.36;102638.69;4990278;28;20042;-80
2023/03/01 03:05:25;;;;;;;23.52;12.20;;;;;;;-3.49;94.23;102643.78;4974049;28;21054;-79
2023/03/01 03:07:55;;;;;;;22.98;10.88;;;;;;;-3.54;94.40;102632.00;4971956;28;20035;-80
2023/03/01 03:10:27;;;;;;;26.02;11.40;;;;;;;-3.57;94.08;102634.56;4988949;28;20050;-80
2023/03/01 03:12:54;;;;;;;21.83;10.93;;;;;;;-3.59;94.36;102641.34;4973938;28;20134;-80
2023/03/01 03:15:21;;;;;;;22.20;11.18;;;;;;;-3.59;94.00;102650.69;4973418;28;20227;-79
2023/03/01 03:17:48;;;;;;;31.50;12.38;;;;;;;-3.61;94.01;102643.09;4974796;28;20022;-78
2023/03/01 03:20:18;;;;;;;29.50;12.88;;;;;;;-3.61;94.28;102642.25;4999027;28;20034;-79
2023/03/01 03:22:49;;;;;;;25.05;11.80;;;;;;;-3.62;94.23;102646.47;4955366;28;20109;-79
2023/03/01 03:25:15;;;;;;;27.80;11.95;;;;;;;-3.63;94.87;102646.50;4951858;28;20038;-79
2023/03/01 03:27:43;;;;;;;23.20;11.93;;;;;;;-3.64;94.69;102640.56;4978034;28;20054;-78
2023/03/01 03:30:13;;;;;;;21.60;11.38;;;;;;;-3.61;95.14;102632.09;4973910;28;20035;-79
2023/03/01 03:32:52;;;;;;;23.60;12.05;;;;;;;-3.59;95.31;102630.38;4973021;28;20034;-79
2023/03/01 03:35:21;;;;;;;27.20;13.27;;;;;;;-3.61;95.35;102629.56;4975647;28;20267;-78
2023/03/01 03:38:01;;;;;;;27.08;12.43;;;;;;;-3.64;95.37;102625.34;4977510;28;20054;-79
2023/03/01 03:40:29;;;;;;;24.25;12.00;;;;;;;-3.65;95.36;102631.31;4958466;28;20046;-79
2023/03/01 03:42:54;;;;;;;23.45;11.27;;;;;;;-3.67;95.33;102633.03;4980869;28;20034;-79
2023/03/01 03:45:20;;;;;;;21.63;12.43;;;;;;;-3.66;95.47;102636.38;4955214;28;20046;-79
2023/03/01 03:47:46;;;;;;;26.23;12.55;;;;;;;-3.68;95.61;102631.34;4971963;28;20053;-79
2023/03/01 03:50:14;;;;;;;30.75;12.23;;;;;;;-3.70;95.47;102627.16;4956824;28;20409;-78
2023/03/01 03:52:40;;;;;;;29.17;12.32;;;;;;;-3.72;95.40;102627.16;4989252;28;20026;-78
2023/03/01 03:55:10;;;;;;;24.30;12.13;;;;;;;-3.73;95.56;102628.88;4974885;28;20500;-79
2023/03/01 03:57:51;;;;;;;29.70;12.95;;;;;;;-3.73;95.69;102622.94;4965268;28;20027;-79
2023/03/01 04:00:19;;;;;;;29.65;13.32;;;;;;;-3.75;95.42;102622.97;4976494;28;20035;-79
2023/03/01 04:02:46;;;;;;;23.20;12.00;;;;;;;-3.78;95.65;102617.94;4971522;28;20084;-78
2023/03/01 04:05:14;;;;;;;27.73;13.73;;;;;;;-3.77;95.81;102616.22;4984872;28;20086;-78
2023/03/01 04:07:40;;;;;;;26.40;13.63;;;;;;;-3.78;95.65;102614.56;4954512;28;20030;-79
2023/03/01 04:10:11;;;;;;;27.90;14.05;;;;;;;-3.82;95.87;102618.00;4973488;28;20121;-78
2023/03/01 04:12:37;;;;;;;27.17;13.63;;;;;;;-3.85;95.73;102613.78;4968669;28;20219;-79
2023/03/01 04:15:12;;;;;;;25.85;13.40;;;;;;;-3.89;96.19;102606.25;4970933;28;20041;-79
2023/03/01 04:17:43;;;;;;;27.58;13.20;;;;;;;-3.92;95.75;102605.44;4970296;28;20034;-79
2023/03/01 04:20:24;;;;;;;27.27;13.43;;;;;;;-3.95;95.74;102604.63;4970233;28;20035;-79
2023/03/01 04:22:51;;;;;;;27.67;12.50;;;;;;;-3.99;96.17;102595.41;4968280;28;20057;-78
2023/03/01 04:25:17;;;;;;;28.88;12.45;;;;;;;-4.01;96.16;102590.34;4987428;28;20774;-77
2023/03/01 04:27:43;;;;;;;27.48;13.00;;;;;;;-4.03;96.10;102591.19;4969491;28;20034;-78
2023/03/01 04:30:09;;;;;;;31.25;13.15;;;;;;;-4.05;96.52;102582.78;4969897;28;20035;-77
2023/03/01 04:32:35;;;;;;;27.25;13.13;;;;;;;-4.06;96.13;102586.19;4968588;28;20045;-78
2023/03/01 04:35:00;;;;;;;27.73;13.77;;;;;;;-4.09;96.80;102581.97;4959261;28;20018;-78
2023/03/01 04:37:26;;;;;;;24.33;13.18;;;;;;;-4.12;96.79;102584.56;4990811;28;20505;-78
2023/03/01 04:39:52;;;;;;;29.85;13.43;;;;;;;-4.14;96.92;102586.28;4976047;28;20054;-78
2023/03/01 04:42:17;;;;;;;27.83;13.32;;;;;;;-4.18;97.11;102590.53;4969474;28;20051;-78
2023/03/01 04:44:44;;;;;;;28.45;14.00;;;;;;;-4.22;96.97;102588.91;4953733;28;20038;-77
2023/03/01 04:47:10;;;;;;;32.45;14.23;;;;;;;-4.20;97.24;102591.38;4965297;28;20042;-77
2023/03/01 04:49:36;;;;;;;30.55;14.27;;;;;;;-4.23;97.09;102589.72;4986321;28;20117;-77
2023/03/01 04:52:03;;;;;;;32.90;15.88;;;;;;;-4.26;97.11;102597.34;4969097;28;20039;-77
2023/03/01 04:54:29;;;;;;;31.55;15.02;;;;;;;-4.28;97.29;102598.25;4987328;28;20023;-77
2023/03/01 04:56:55;;;;;;;34.55;15.65;;;;;;;-4.32;97.81;102598.25;4962804;28;20620;-77
2023/03/01 04:59:22;;;;;;;31.42;14.65;;;;;;;-4.34;97.65;102596.63;4977098;28;20033;-77
2023/03/01 05:01:51;;;;;;;29.95;14.70;;;;;;;-4.36;98.21;102595.78;4968799;28;20054;-77
2023/03/01 05:04:17;;;;;;;25.20;13.63;;;;;;;-4.38;98.20;102589.91;4966099;28;20054;-77
2023/03/01 05:06:43;;;;;;;28.05;13.90;;;;;;;-4.40;98.00;102586.56;4975403;28;20043;-77
2023/03/01 05:09:08;;;;;;;27.90;13.73;;;;;;;-4.41;98.18;102584.84;4973764;28;20409;-77
2023/03/01 05:11:35;;;;;;;29.67;15.25;;;;;;;-4.42;98.30;102580.66;4953598;28;20050;-76
2023/03/01 05:14:11;;;;;;;30.42;15.57;;;;;;;-4.44;98.69;102584.91;4970031;28;20485;-76
2023/03/01 05:16:37;;;;;;;31.55;14.23;;;;;;;-4.44;98.35;102582.38;4967449;28;20038;-76
2023/03/01 05:19:11;;;;;;;27.08;13.93;;;;;;;-4.46;98.61;102582.38;4970750;28;20049;-76
2023/03/01 05:22:01;;;;;;;27.13;14.02;;;;;;;-4.47;98.58;102578.16;4969549;28;20042;-76
2023/03/01 05:24:27;;;;;;;29.63;14.48;;;;;;;-4.49;98.78;102579.88;4968628;28;20035;-76
2023/03/01 05:26:52;;;;;;;33.72;15.32;;;;;;;-4.53;98.39;102581.59;4951054;28;20432;-76
2023/03/01 05:29:26;;;;;;;29.45;14.60;;;;;;;-4.56;98.29;102574.06;4972170;28;20038;-76
2023/03/01 05:31:59;;;;;;;31.35;14.63;;;;;;;-4.58;98.43;102570.66;4951208;28;20130;-76
2023/03/01 05:34:26;;;;;;;36.80;14.50;;;;;;;-4.59;98.50;102573.25;4988099;28;20035;-76
2023/03/01 05:36:53;;;;;;;27.88;13.93;;;;;;;-4.61;98.42;102565.66;4981568;28;20513;-76
2023/03/01 05:39:24;;;;;;;35.35;14.13;;;;;;;-4.62;98.74;102571.56;4971050;28;20072;-76
2023/03/01 05:41:57;;;;;;;25.73;14.35;;;;;;;-4.64;98.74;102573.25;4969228;28;20089;-76
2023/03/01 05:44:24;;;;;;;32.20;13.85;;;;;;;-4.65;99.04;102564.00;4972681;28;20041;-76
2023/03/01 05:46:49;;;;;;;35.65;15.50;;;;;;;-4.66;99.05;102564.00;4967275;28;20106;-76
2023/03/01 05:49:15;;;;;;;30.48;14.20;;;;;;;-4.66;98.91;102566.53;4971079;28;20078;-76
2023/03/01 05:51:46;;;;;;;25.27;14.30;;;;;;;-4.69;99.33;102564.88;4967308;28;20035;-76
2023/03/01 05:54:12;;;;;;;34.38;15.48;;;;;;;-4.70;99.43;102565.72;4990172;28;20496;-76
2023/03/01 05:56:37;;;;;;;37.20;15.25;;;;;;;-4.72;99.56;102572.50;4969072;28;20051;-76
2023/03/01 05:59:07;;;;;;;28.13;13.32;;;;;;;-4.75;99.38;102562.41;4966455;28;20023;-76
2023/03/01 06:01:34;;;;;;;28.60;14.02;;;;;;;-4.77;99.56;102564.09;4967633;28;20065;-76
2023/03/01 06:03:59;;;;;;;26.15;13.70;;;;;;;-4.78;99.48;102564.97;4973274;28;20038;-75
2023/03/01 06:06:25;;;;;;;29.42;13.95;;;;;;;-4.80;99.68;102571.72;4985843;28;20065;-76
2023/03/01 06:08:52;;;;;;;35.65;14.88;;;;;;;-4.79;99.55;102563.28;4969128;28;20042;-76
2023/03/01 06:11:17;;;;;;;31.15;12.90;;;;;;;-4.80;99.51;102577.66;4970524;28;20100;-75
2023/03/01 06:13:44;;;;;;;26.80;13.63;;;;;;;-4.81;99.52;102582.72;4967741;28;20469;-75
2023/03/01 06:16:10;;;;;;;32.33;13.98;;;;;;;-4.78;100.00;102575.94;4985209;28;20629;-76
2023/03/01 06:18:36;;;;;;;31.70;15.15;;;;;;;-4.77;100.00;102571.69;4967779;28;20038;-76
2023/03/01 06:21:02;;;;;;;30.17;14.85;;;;;;;-4.76;100.00;102581.00;4966913;28;20085;-76
2023/03/01 06:23:28;;;;;;;32.67;14.18;;;;;;;-4.76;100.00;102568.34;4968020;28;20712;-75
2023/03/01 06:25:53;;;;;;;33.85;14.15;;;;;;;-4.76;100.00;102566.63;4967201;28;20038;-76
2023/03/01 06:28:19;;;;;;;44.25;17.75;;;;;;;-4.65;100.00;102561.47;4964950;28;20043;-76
2023/03/01 06:30:44;;;;;;;35.45;16.63;;;;;;;-4.62;100.00;102558.91;4966771;28;20043;-75
2023/03/01 06:33:10;;;;;;;35.45;15.32;;;;;;;-4.61;100.00;102559.75;4985830;28;20134;-75
2023/03/01 06:35:35;;;;;;;27.27;13.98;;;;;;;-4.51;100.00;102567.22;4980498;28;20089;-75
2023/03/01 06:38:03;;;;;;;29.90;14.48;;;;;;;-4.46;100.00;102561.25;4969675;28;20492;-76
2023/03/01 06:40:29;;;;;;;30.75;14.77;;;;;;;-4.42;100.00;102552.81;4963751;28;20073;-77
2023/03/01 06:42:55;;;;;;;34.78;15.10;;;;;;;-4.42;99.96;102552.81;4952400;28;20033;-75
2023/03/01 06:45:21;;;;;;;29.63;14.90;;;;;;;-4.41;100.00;102552.75;4978457;28;20449;-76
2023/03/01 06:47:47;;;;;;;28.73;14.68;;;;;;;-4.41;100.00;102555.28;4967794;28;20047;-75
2023/03/01 06:50:14;;;;;;;32.53;16.25;;;;;;;-4.34;100.00;102558.63;4967372;28;20031;-76
2023/03/01 06:52:39;;;;;;;33.33;14.68;;;;;;;-4.34;99.93;102561.97;4971996;28;20121;-75
2023/03/01 06:55:06;;;;;;;33.83;14.55;;;;;;;-4.30;99.76;102561.09;4976014;28;20038;-75
2023/03/01 06:57:31;;;;;;;32.05;15.00;;;;;;;-4.23;99.89;102566.94;4970728;28;20034;-75
2023/03/01 06:59:57;;;;;;;33.25;15.48;;;;;;;-4.24;99.65;102569.47;4974385;28;20023;-75
2023/03/01 07:02:22;;;;;;;33.72;14.68;;;;;;;-4.24;99.62;102559.34;4971496;28;20406;-76
2023/03/01 07:04:51;;;;;;;34.22;14.75;;;;;;;-4.21;99.58;102564.38;4971338;28;20035;-75
2023/03/01 07:07:17;;;;;;;28.65;14.73;;;;;;;-4.19;99.65;102566.03;4970700;28;20035;-76
2023/03/01 07:09:44;;;;;;;38.17;15.85;;;;;;;-3.88;99.51;102574.97;4955257;28;20034;-75
2023/03/01 07:12:09;;;;;;;33.65;15.27;;;;;;;-3.87;98.69;102566.50;4984140;28;20047;-76
2023/03/01 07:14:35;;;;;;;32.35;14.77;;;;;;;-3.87;98.32;102559.72;4986259;28;20038;-75
2023/03/01 07:17:00;;;;;;;30.30;14.40;;;;;;;-3.78;97.86;102559.63;4974573;28;20090;-76
2023/03/01 07:19:26;;;;;;;28.70;14.23;;;;;;;-3.67;97.59;102574.69;4976389;28;20035;-75
2023/03/01 07:21:51;;;;;;;35.95;14.57;;;;;;;-3.67;97.53;102572.16;4979268;28;20046;-76
2023/03/01 07:24:18;;;;;;;31.85;14.40;;;;;;;-3.61;97.36;102566.16;4953984;28;20034;-76
2023/03/01 07:26:43;;;;;;;30.65;14.57;;;;;;;-3.50;97.24;102564.31;4976651;28;20098;-76
2023/03/01 07:29:10;;;;;;;32.00;14.82;;;;;;;-3.19;95.81;102558.78;4973821;28;20236;-76
2023/03/01 07:31:36;;;;;;;31.17;15.13;;;;;;;-2.77;94.56;102551.28;4970515;28;20497;-75
2023/03/01 07:34:02;;;;;;;27.13;12.93;;;;;;;-2.27;93.14;102561.38;4986971;28;20046;-76
2023/03/01 07:36:28;;;;;;;29.10;13.70;;;;;;;-1.86;89.72;102545.28;4959071;28;20034;-76
2023/03/01 07:38:55;;;;;;;27.65;13.23;;;;;;;-1.47;87.58;102544.41;4971904;28;20542;-77
2023/03/01 07:41:21;;;;;;;61.35;23.17;;;;;;;-1.14;85.07;102541.97;4987559;28;20042;-76
2023/03/01 07:43:46;;;;;;;56.38;21.88;;;;;;;-0.63;84.02;102532.13;4972608;28;20057;-75
2023/03/01 07:46:12;;;;;;;30.15;13.02;;;;;;;-0.41;80.09;102536.66;4970148;28;20409;-77
2023/03/01 07:48:38;;;;;;;30.10;13.38;;;;;;;-0.09;78.66;102520.44;4975193;28;20100;-77
2023/03/01 07:51:05;;;;;;;20.98;11.65;;;;;;;0.27;77.38;102532.16;4980379;28;20049;-77
2023/03/01 07:53:33;;;;;;;26.38;11.63;;;;;;;0.49;76.11;102524.63;4970607;28;20485;-77
2023/03/01 07:56:14;;;;;;;25.95;11.30;;;;;;;0.48;73.65;102528.91;4993751;28;20042;-79
2023/03/01 07:58:43;;;;;;;24.13;12.07;;;;;;;0.82;73.26;102530.38;4970918;28;20079;-77
2023/03/01 08:01:16;;;;;;;31.60;12.32;;;;;;;0.73;72.42;102543.44;4960026;28;20066;-78
2023/03/01 08:03:43;;;;;;;21.48;11.25;;;;;;;0.84;71.32;102543.94;4956390;28;20038;-79
2023/03/01 08:06:09;;;;;;;27.20;12.23;;;;;;;0.99;71.03;102540.03;4953260;28;20046;-78
2023/03/01 08:08:36;;;;;;;20.90;10.95;;;;;;;1.01;70.94;102542.56;4972250;28;20038;-79
2023/03/01 08:11:04;;;;;;;29.17;12.73;;;;;;;1.21;71.60;102542.72;4975494;28;20047;-78
2023/03/01 08:13:29;;;;;;;28.05;12.25;;;;;;;1.41;69.15;102538.63;4987639;28;20444;-79
2023/03/01 08:16:04;;;;;;;24.00;11.75;;;;;;;1.46;68.72;102537.56;4972697;28;20039;-81
2023/03/01 08:18:32;;;;;;;20.83;11.30;;;;;;;1.62;68.28;102537.88;4987990;28;20081;-81
2023/03/01 08:21:09;;;;;;;23.52;12.00;;;;;;;1.93;66.52;102529.88;4967247;28;20032;-79
2023/03/01 08:23:35;;;;;;;24.27;11.63;;;;;;;2.19;66.31;102522.13;4992015;28;20049;-79
2023/03/01 08:26:06;;;;;;;28.70;11.48;;;;;;;2.69;65.22;102521.81;4987929;28;20047;-80
2023/03/01 08:28:33;;;;;;;22.92;11.23;;;;;;;2.51;63.26;102526.81;4991320;28;20484;-80
2023/03/01 08:30:58;;;;;;;22.48;11.02;;;;;;;2.99;64.13;102524.00;4988986;28;20513;-81
2023/03/01 08:33:24;;;;;;;21.77;11.10;;;;;;;3.05;61.86;102537.41;4970323;28;20065;-81
2023/03/01 08:35:50;;;;;;;21.20;10.45;;;;;;;3.25;61.05;102534.00;4986158;28;20035;-81
2023/03/01 08:38:15;;;;;;;26.42;12.35;;;;;;;3.42;60.23;102528.13;4971320;28;20081;-81
2023/03/01 08:40:41;;;;;;;24.20;12.98;;;;;;;3.67;59.87;102521.91;4969090;28;20448;-82
2023/03/01 08:43:06;;;;;;;19.83;11.27;;;;;;;3.72;58.71;102519.97;4973208;28;20436;-82
2023/03/01 08:45:32;;;;;;;26.15;10.73;;;;;;;4.32;58.62;102527.47;4975467;28;20417;-82
2023/03/01 08:47:57;;;;;;;21.98;11.02;;;;;;;4.72;58.01;102524.72;4990404;28;20386;-82
2023/03/01 08:50:24;;;;;;;20.30;10.57;;;;;;;4.80;56.68;102520.88;4975629;28;20047;-81
2023/03/01 08:52:50;;;;;;;30.50;10.50;;;;;;;4.82;55.47;102507.91;4970157;28;20033;-82
2023/03/01 08:55:17;;;;;;;17.55;10.10;;;;;;;4.88;55.65;102518.75;4975857;28;20035;-82
2023/03/01 08:57:43;;;;;;;21.67;11.32;;;;;;;4.23;56.13;102520.22;4974793;28;20086;-82
2023/03/01 09:00:11;;;;;;;21.15;10.45;;;;;;;4.46;56.49;102506.25;4971756;28;20034;-81
2023/03/01 09:02:36;;;;;;;22.15;11.52;;;;;;;4.37;56.98;102509.25;4953824;28;20038;-81
2023/03/01 09:05:02;;;;;;;18.52;10.50;;;;;;;4.77;55.91;102508.16;4972873;28;20053;-81
2023/03/01 09:07:30;;;;;;;24.00;10.80;;;;;;;4.92;55.98;102504.00;4986836;28;20501;-81
2023/03/01 09:09:56;;;;;;;18.80;10.15;;;;;;;4.92;55.51;102501.41;4954793;28;20664;-81
2023/03/01 09:12:22;;;;;;;23.95;10.93;;;;;;;4.83;54.89;102497.56;4970703;28;20046;-77
2023/03/01 09:14:47;;;;;;;19.35;10.65;;;;;;;5.04;54.94;102499.97;4965389;28;20035;-80
2023/03/01 09:17:13;;;;;;;19.38;11.18;;;;;;;4.91;55.38;102504.06;4951775;28;20049;-80
2023/03/01 09:19:38;;;;;;;18.90;10.50;;;;;;;4.92;55.08;102495.47;4971724;28;21849;-80
2023/03/01 09:22:04;;;;;;;25.05;10.52;;;;;;;4.88;55.37;102492.22;4972972;28;20042;-80
2023/03/01 09:24:30;;;;;;;22.40;11.20;;;;;;;4.98;55.92;102488.25;4992257;28;20502;-80
2023/03/01 09:26:56;;;;;;;20.45;10.20;;;;;;;4.54;55.40;102499.03;4983383;28;20105;-78
2023/03/01 09:29:22;;;;;;;19.05;10.70;;;;;;;3.94;56.91;102496.75;4985694;28;20520;-79
2023/03/01 09:31:48;;;;;;;19.27;10.95;;;;;;;3.66;56.96;102487.72;4975052;28;20039;-80
2023/03/01 09:34:15;;;;;;;24.70;10.23;;;;;;;3.65;58.02;102493.75;4973051;28;20043;-80
2023/03/01 09:36:41;;;;;;;20.70;10.73;;;;;;;3.20;58.75;102487.22;4974929;28;20127;-80
2023/03/01 09:39:07;;;;;;;19.65;10.63;;;;;;;3.02;59.52;102485.47;4972463;28;20062;-80
2023/03/01 09:41:47;;;;;;;19.67;10.82;;;;;;;3.05;59.77;102483.59;4985433;28;20089;-80
2023/03/01 09:44:39;;;;;;;33.42;13.05;;;;;;;3.29;60.45;102473.16;4983906;28;20038;-80
2023/03/01 09:47:05;;;;;;;22.30;10.50;;;;;;;3.17;60.24;102477.09;4976482;28;20046;-81
2023/03/01 09:49:34;;;;;;;21.52;12.02;;;;;;;3.29;61.48;102473.16;4960712;28;20035;-81
2023/03/01 09:52:21;;;;;;;19.70;10.25;;;;;;;3.17;61.46;102481.41;4988488;28;20039;-80
2023/03/01 09:54:52;;;;;;;18.42;10.10;;;;;;;3.08;60.81;102472.38;4989994;28;20125;-80
2023/03/01 09:57:18;;;;;;;23.63;12.23;;;;;;;3.08;62.21;102472.38;4969085;28;20441;-80
2023/03/01 09:59:46;;;;;;;21.60;11.57;;;;;;;3.05;62.15;102467.38;4972509;28;20182;-79
2023/03/01 10:02:59;;;;;;;23.38;11.52;;;;;;;2.84;61.42;102469.94;4949808;28;20043;-80
2023/03/01 10:05:36;;;;;;;23.60;10.95;;;;;;;2.83;61.06;102470.03;4890028;29;20122;-79
2023/03/01 10:08:08;;;;;;;18.05;9.93;;;;;;;2.92;62.00;102460.22;4949690;28;20552;-78
2023/03/01 10:10:39;;;;;;;19.75;10.75;;;;;;;3.11;60.61;102451.75;4966873;28;20450;-79
2023/03/01 10:13:23;;;;;;;24.08;10.93;;;;;;;2.93;59.82;102451.63;4972458;28;20038;-79
2023/03/01 10:16:05;;;;;;;22.35;10.77;;;;;;;3.09;61.26;102456.94;4966131;28;20050;-79
2023/03/01 10:18:36;;;;;;;19.90;10.82;;;;;;;3.18;60.05;102452.28;4969173;28;20039;-77
2023/03/01 10:21:23;;;;;;;19.77;10.20;;;;;;;3.13;59.77;102442.25;4954386;28;20035;-79
2023/03/01 10:23:53;;;;;;;19.55;11.02;;;;;;;3.18;60.52;102447.16;4954168;28;20105;-80
2023/03/01 10:26:34;;;;;;;20.15;11.43;;;;;;;3.36;59.91;102446.34;4967798;28;20118;-77
2023/03/01 10:29:03;;;;;;;20.48;10.60;;;;;;;3.45;60.15;102443.38;4984809;28;20041;-79
2023/03/01 10:31:47;;;;;;;22.80;10.68;;;;;;;3.46;60.82;102441.63;4969070;28;20051;-79
2023/03/01 10:34:15;;;;;;;24.08;11.48;;;;;;;3.59;59.18;102429.06;4970826;28;20046;-79
2023/03/01 10:36:42;;;;;;;18.88;10.35;;;;;;;3.33;58.40;102431.09;4956625;28;20437;-79
2023/03/01 10:39:18;;;;;;;22.70;10.65;;;;;;;3.35;58.77;102426.72;4988023;28;20039;-78
2023/03/01 10:42:05;;;;;;;20.48;11.25;;;;;;;3.46;59.98;102424.50;4986537;28;20050;-81
2023/03/01 10:44:46;;;;;;;21.05;10.75;;;;;;;3.45;58.06;102419.47;4971978;28;20493;-79
2023/03/01 10:47:24;;;;;;;22.38;10.57;;;;;;;3.46;57.30;102421.09;4968899;28;20043;-79
2023/03/01 10:49:59;;;;;;;22.27;11.70;;;;;;;3.33;60.35;102413.13;4955748;28;20034;-79
2023/03/01 10:52:29;;;;;;;22.42;11.85;;;;;;;3.48;60.97;102409.03;4987065;28;20097;-79
2023/03/01 10:55:19;;;;;;;21.48;11.48;;;;;;;3.44;59.37;102404.97;4971126;28;20105;-76
2023/03/01 10:57:46;;;;;;;18.70;9.98;;;;;;;3.58;59.52;102404.31;4970225;28;20042;-79
2023/03/01 11:00:19;;;;;;;26.50;10.77;;;;;;;3.46;59.40;102406.53;4950696;28;20038;-76
2023/03/01 11:03:12;;;;;;;19.73;10.68;;;;;;;3.76;58.55;102394.94;4972360;28;20085;-78
2023/03/01 11:05:57;;;;;;;21.55;11.23;;;;;;;3.59;57.89;102390.59;4970264;28;20073;-78
2023/03/01 11:08:56;;;;;;;16.50;9.90;;;;;;;3.90;57.39;102382.28;4965220;28;20097;-79
2023/03/01 11:11:31;;;;;;;20.20;10.52;;;;;;;3.95;58.30;102384.63;4913172;28;20059;-79
2023/03/01 11:14:03;;;;;;;24.70;10.63;;;;;;;4.09;59.11;102384.78;4977897;28;20062;-79
2023/03/01 11:16:32;;;;;;;21.02;10.77;;;;;;;4.03;58.64;102385.06;4982185;28;20054;-78
2023/03/01 11:19:07;;;;;;;23.85;11.98;;;;;;;4.01;57.93;102374.03;4953724;28;20035;-78
2023/03/01 11:21:34;;;;;;;21.58;11.98;;;;;;;3.85;57.78;102386.81;4964267;28;20413;-77